Aviation Digital Data Service (ADDS)

Output produced by METARs form (0051 UTC 25 July 2017)
found at http://aviationweather.gov/adds/metars/
 
KHUL 242326Z 2500/2524 VRB03KT P6SM BKN090 OVC150 
     FM250400 VRB03KT P6SM -SHRA OVC060 
     FM250800 VRB03KT P6SM OVC045 
     FM252000 VRB03KT P6SM SCT060